createdAt,value
2018-12-26T00:00:39.448Z,96675.63
2018-12-26T00:03:12.150Z,96671.15
2018-12-26T00:05:45.098Z,96667.02
2018-12-26T00:08:17.269Z,96661.33
2018-12-26T00:10:49.903Z,96660.92
2018-12-26T00:13:22.640Z,96661.15
2018-12-26T00:15:55.462Z,96660.82
2018-12-26T00:18:28.259Z,96662.92
2018-12-26T00:21:01.006Z,96663.87
2018-12-26T00:23:33.618Z,96662.33
2018-12-26T00:26:06.454Z,96663.55
2018-12-26T00:28:39.066Z,96661.34
2018-12-26T00:31:11.710Z,96668.23
2018-12-26T00:33:44.448Z,96667.04
2018-12-26T00:36:17.199Z,96661.00
2018-12-26T00:38:49.821Z,96654.48
2018-12-26T00:41:22.570Z,96656.94
2018-12-26T00:43:55.370Z,96656.14
2018-12-26T00:46:28.118Z,96651.38
2018-12-26T00:49:00.801Z,96656.86
2018-12-26T00:51:33.441Z,96648.52
2018-12-26T00:54:06.099Z,96647.15
2018-12-26T00:56:38.749Z,96646.23
2018-12-26T00:59:11.518Z,96649.42
2018-12-26T01:01:44.166Z,96653.27
2018-12-26T01:04:16.832Z,96648.66
2018-12-26T01:06:49.532Z,96650.89
2018-12-26T01:09:22.220Z,96641.70
2018-12-26T01:11:54.989Z,96643.45
2018-12-26T01:14:27.683Z,96637.96
2018-12-26T01:17:00.385Z,96649.98
2018-12-26T01:19:33.118Z,96646.41
2018-12-26T01:22:05.793Z,96633.52
2018-12-26T01:24:38.490Z,96636.64
2018-12-26T01:27:12.312Z,96640.55
2018-12-26T01:29:44.951Z,96634.55
2018-12-26T01:32:17.162Z,96630.97
2018-12-26T01:34:49.763Z,96635.58
2018-12-26T01:37:22.430Z,96628.02
2018-12-26T01:39:55.208Z,96632.13
2018-12-26T01:42:27.982Z,96635.25
2018-12-26T01:45:01.522Z,96638.55
2018-12-26T01:47:34.186Z,96636.88
2018-12-26T01:50:07.845Z,96638.16
2018-12-26T01:52:40.523Z,96642.94
2018-12-26T01:55:13.164Z,96632.98
2018-12-26T01:57:45.783Z,96635.35
2018-12-26T02:00:18.765Z,96633.78
2018-12-26T02:02:52.459Z,96630.95
2018-12-26T02:05:25.276Z,96636.34
2018-12-26T02:07:58.968Z,96629.50
2018-12-26T02:10:31.773Z,96647.19
2018-12-26T02:13:04.406Z,96645.13
2018-12-26T02:15:37.086Z,96649.83
2018-12-26T02:18:09.998Z,96647.27
2018-12-26T02:20:42.884Z,96645.70
2018-12-26T02:23:15.525Z,96654.85
2018-12-26T02:25:50.463Z,96649.83
2018-12-26T02:28:24.450Z,96640.31
2018-12-26T02:30:57.137Z,96642.02
2018-12-26T02:33:29.729Z,96634.72
2018-12-26T02:36:02.382Z,96635.95
2018-12-26T02:38:35.008Z,96637.44
2018-12-26T02:41:07.768Z,96644.80
2018-12-26T02:43:40.385Z,96635.76
2018-12-26T02:46:13.112Z,96631.96
2018-12-26T02:48:45.808Z,96632.97
2018-12-26T02:51:18.460Z,96626.20
2018-12-26T02:53:51.169Z,96621.27
2018-12-26T02:56:23.839Z,96626.95
2018-12-26T02:58:56.517Z,96615.64
2018-12-26T03:01:29.184Z,96618.33
2018-12-26T03:04:01.897Z,96605.39
2018-12-26T03:06:34.525Z,96606.93
2018-12-26T03:09:09.317Z,96600.06
2018-12-26T03:11:41.963Z,96593.95
2018-12-26T03:14:14.579Z,96591.73
2018-12-26T03:16:47.235Z,96588.36
2018-12-26T03:19:19.835Z,96580.88
2018-12-26T03:21:52.653Z,96583.38
2018-12-26T03:24:25.393Z,96571.08
2018-12-26T03:26:58.221Z,96571.48
2018-12-26T03:29:30.565Z,96565.94
2018-12-26T03:32:03.242Z,96566.88
2018-12-26T03:34:35.903Z,96563.83
2018-12-26T03:37:08.576Z,96558.55
2018-12-26T03:39:41.407Z,96557.89
2018-12-26T03:42:14.351Z,96548.91
2018-12-26T03:44:48.783Z,96549.52
2018-12-26T03:47:21.910Z,96540.58
2018-12-26T03:49:55.048Z,96546.28
2018-12-26T03:52:27.997Z,96547.80
2018-12-26T03:55:00.676Z,96536.36
2018-12-26T03:57:33.508Z,96542.98
2018-12-26T04:00:07.155Z,96531.45
2018-12-26T04:02:38.987Z,96531.22
2018-12-26T04:05:11.690Z,96529.86
2018-12-26T04:07:44.424Z,96527.42
2018-12-26T04:10:17.196Z,96531.05
2018-12-26T04:12:50.187Z,96534.20
2018-12-26T04:15:22.967Z,96534.50
2018-12-26T04:17:55.596Z,96539.47
2018-12-26T04:20:28.381Z,96539.47
2018-12-26T04:23:01.289Z,96541.95
2018-12-26T04:25:34.614Z,96537.73
2018-12-26T04:28:07.273Z,96541.95
2018-12-26T04:30:41.293Z,96541.36
2018-12-26T04:33:13.913Z,96534.08
2018-12-26T04:35:46.618Z,96540.52
2018-12-26T04:38:19.410Z,96538.41
2018-12-26T04:40:52.070Z,96541.18
2018-12-26T04:43:24.741Z,96541.47
2018-12-26T04:45:57.475Z,96550.53
2018-12-26T04:48:30.193Z,96547.75
2018-12-26T04:51:03.020Z,96544.47
2018-12-26T04:53:35.914Z,96546.68
2018-12-26T04:56:08.766Z,96547.42
2018-12-26T04:58:41.425Z,96544.27
2018-12-26T05:01:14.127Z,96558.17
2018-12-26T05:03:46.786Z,96561.09
2018-12-26T05:06:19.468Z,96557.89
2018-12-26T05:08:52.257Z,96561.95
2018-12-26T05:11:24.935Z,96565.44
2018-12-26T05:13:57.535Z,96556.45
2018-12-26T05:16:30.251Z,96561.31
2018-12-26T05:19:02.918Z,96556.98
2018-12-26T05:21:35.578Z,96561.11
2018-12-26T05:24:08.271Z,96561.17
2018-12-26T05:26:41.006Z,96565.23
2018-12-26T05:29:13.825Z,96568.38
2018-12-26T05:31:46.494Z,96571.00
2018-12-26T05:34:19.554Z,96577.69
2018-12-26T05:36:52.211Z,96583.38
2018-12-26T05:39:24.872Z,96588.67
2018-12-26T05:41:57.293Z,96586.27
2018-12-26T05:44:29.988Z,96587.90
2018-12-26T05:47:02.713Z,96594.86
2018-12-26T05:49:35.542Z,96589.56
2018-12-26T05:52:08.201Z,96594.65
2018-12-26T05:54:41.012Z,96592.13
2018-12-26T05:57:13.658Z,96593.61
2018-12-26T05:59:46.341Z,96588.97
2018-12-26T06:02:19.018Z,96584.08
2018-12-26T06:04:51.715Z,96583.63
2018-12-26T06:07:24.381Z,96577.11
2018-12-26T06:09:57.128Z,96581.94
2018-12-26T06:12:29.778Z,96571.75
2018-12-26T06:15:02.589Z,96576.85
2018-12-26T06:17:35.309Z,96572.63
2018-12-26T06:20:08.120Z,96572.70
2018-12-26T06:22:40.696Z,96575.02
2018-12-26T06:25:13.457Z,96573.40
2018-12-26T06:27:51.411Z,96574.27
2018-12-26T06:30:20.533Z,96580.09
2018-12-26T06:32:53.354Z,96571.92
2018-12-26T06:35:26.651Z,96571.27
2018-12-26T06:38:01.423Z,96568.50
2018-12-26T06:40:33.795Z,96568.77
2018-12-26T06:43:06.387Z,96565.34
2018-12-26T06:45:39.073Z,96557.89
2018-12-26T06:48:11.851Z,96560.64
2018-12-26T06:50:44.752Z,96569.12
2018-12-26T06:53:17.514Z,96568.77
2018-12-26T06:55:50.324Z,96563.98
2018-12-26T06:58:23.062Z,96574.12
2018-12-26T07:00:55.798Z,96573.16
2018-12-26T07:03:28.799Z,96579.92
2018-12-26T07:06:01.461Z,96576.19
2018-12-26T07:08:34.277Z,96586.34
2018-12-26T07:11:06.939Z,96575.73
2018-12-26T07:13:40.046Z,96575.16
2018-12-26T07:16:14.447Z,96572.95
2018-12-26T07:18:47.227Z,96578.21
2018-12-26T07:21:20.010Z,96568.61
2018-12-26T07:23:52.807Z,96559.08
2018-12-26T07:26:25.667Z,96564.36
2018-12-26T07:28:58.400Z,96568.19
2018-12-26T07:31:31.295Z,96570.84
2018-12-26T07:34:05.558Z,96569.33
2018-12-26T07:36:38.172Z,96572.86
2018-12-26T07:39:10.927Z,96574.05
2018-12-26T07:41:43.707Z,96578.63
2018-12-26T07:44:16.367Z,96584.05
2018-12-26T07:46:49.065Z,96590.84
2018-12-26T07:49:28.277Z,96576.48
2018-12-26T07:52:01.023Z,96589.86
2018-12-26T07:54:33.757Z,96597.61
2018-12-26T07:57:06.598Z,96596.13
2018-12-26T07:59:39.243Z,96598.17
2018-12-26T08:02:12.069Z,96602.66
2018-12-26T08:04:44.754Z,96609.11
2018-12-26T08:07:18.871Z,96616.39
2018-12-26T08:09:54.952Z,96623.13
2018-12-26T08:12:27.504Z,96627.62
2018-12-26T08:15:00.178Z,96626.28
2018-12-26T08:17:32.907Z,96622.25
2018-12-26T08:20:06.519Z,96616.94
2018-12-26T08:22:39.271Z,96614.30
2018-12-26T08:25:12.045Z,96608.66
2018-12-26T08:27:44.910Z,96602.87
2018-12-26T08:30:17.677Z,96606.80
2018-12-26T08:32:51.362Z,96599.92
2018-12-26T08:35:24.041Z,96599.30
2018-12-26T08:37:56.746Z,96599.59
2018-12-26T08:40:30.099Z,96603.80
2018-12-26T08:43:49.610Z,96604.06
2018-12-26T08:46:22.271Z,96616.63
2018-12-26T08:48:56.360Z,96613.52
2018-12-26T08:51:29.016Z,96615.19
2018-12-26T08:54:02.495Z,96607.69
2018-12-26T08:56:35.133Z,96612.67
2018-12-26T08:59:16.225Z,96605.77
2018-12-26T09:01:48.891Z,96612.42
2018-12-26T09:04:26.909Z,96603.91
2018-12-26T09:06:59.555Z,96608.39
2018-12-26T09:09:32.199Z,96610.06
2018-12-26T09:12:05.347Z,96603.31
2018-12-26T09:14:38.046Z,96608.01
2018-12-26T09:17:10.068Z,96605.52
2018-12-26T09:19:42.778Z,96608.06
2018-12-26T09:22:15.552Z,96609.23
2018-12-26T09:24:48.221Z,96607.79
2018-12-26T09:27:20.897Z,96611.56
2018-12-26T09:29:53.543Z,96623.02
2018-12-26T09:32:26.207Z,96620.16
2018-12-26T09:34:58.867Z,96619.36
2018-12-26T09:37:31.492Z,96623.81
2018-12-26T09:40:04.264Z,96622.10
2018-12-26T09:42:37.056Z,96623.16
2018-12-26T09:45:10.236Z,96624.58
2018-12-26T09:47:42.889Z,96621.41
2018-12-26T09:50:15.688Z,96628.65
2018-12-26T09:52:48.475Z,96621.52
2018-12-26T09:55:21.141Z,96624.23
2018-12-26T09:57:53.803Z,96623.14
2018-12-26T10:00:26.475Z,96627.24
2018-12-26T10:02:59.204Z,96621.70
2018-12-26T10:05:31.853Z,96610.73
2018-12-26T10:08:04.895Z,96608.16
2018-12-26T10:10:37.655Z,96605.81
2018-12-26T10:13:10.330Z,96594.89
2018-12-26T10:15:42.991Z,96595.13
2018-12-26T10:18:17.083Z,96581.38
2018-12-26T10:20:50.752Z,96576.12
2018-12-26T10:23:23.539Z,96582.14
2018-12-26T10:25:56.382Z,96577.50
2018-12-26T10:28:29.086Z,96575.14
2018-12-26T10:31:01.690Z,96577.08
2018-12-26T10:33:34.368Z,96574.66
2018-12-26T10:36:07.120Z,96577.89
2018-12-26T10:38:39.827Z,96576.56
2018-12-26T10:41:12.629Z,96563.20
2018-12-26T10:43:45.347Z,96571.28
2018-12-26T10:46:18.016Z,96573.52
2018-12-26T10:48:50.799Z,96570.50
2018-12-26T10:51:23.521Z,96563.09
2018-12-26T10:53:57.195Z,96551.56
2018-12-26T10:56:32.724Z,96560.19
2018-12-26T10:59:10.081Z,96554.16
2018-12-26T11:01:39.828Z,96547.47
2018-12-26T11:04:12.521Z,96546.38
2018-12-26T11:06:45.215Z,96540.59
2018-12-26T11:09:18.001Z,96534.46
2018-12-26T11:11:50.760Z,96536.19
2018-12-26T11:14:23.456Z,96529.46
2018-12-26T11:16:56.145Z,96518.30
2018-12-26T11:19:28.780Z,96512.28
2018-12-26T11:22:01.404Z,96513.28
2018-12-26T11:24:34.058Z,96510.87
2018-12-26T11:27:06.713Z,96512.31
2018-12-26T11:29:39.390Z,96503.58
2018-12-26T11:32:12.071Z,96499.45
2018-12-26T11:34:44.671Z,96489.23
2018-12-26T11:37:17.353Z,96480.50
2018-12-26T11:39:50.138Z,96482.32
2018-12-26T11:42:22.881Z,96477.45
2018-12-26T11:44:55.698Z,96469.72
2018-12-26T11:47:29.160Z,96472.82
2018-12-26T11:50:01.884Z,96466.95
2018-12-26T11:52:34.572Z,96470.09
2018-12-26T11:55:07.806Z,96465.64
2018-12-26T11:57:40.461Z,96459.65
2018-12-26T12:00:13.606Z,96460.87
2018-12-26T12:02:46.208Z,96460.95
2018-12-26T12:05:22.062Z,96456.00
2018-12-26T12:07:54.716Z,96445.15
2018-12-26T12:10:27.393Z,96448.95
2018-12-26T12:13:00.030Z,96446.95
2018-12-26T12:15:32.807Z,96443.95
2018-12-26T12:18:05.495Z,96439.16
2018-12-26T12:20:38.250Z,96436.95
2018-12-26T12:23:10.925Z,96437.30
2018-12-26T12:25:43.511Z,96430.23
2018-12-26T12:28:16.262Z,96434.60
2018-12-26T12:30:49.110Z,96431.36
2018-12-26T12:33:21.740Z,96440.48
2018-12-26T12:35:54.526Z,96438.48
2018-12-26T12:38:27.173Z,96436.14
2018-12-26T12:40:59.868Z,96434.16
2018-12-26T12:43:32.609Z,96431.41
2018-12-26T12:46:05.267Z,96434.48
2018-12-26T12:48:37.966Z,96438.66
2018-12-26T12:51:10.586Z,96437.31
2018-12-26T12:53:43.346Z,96437.55
2018-12-26T12:56:16.001Z,96443.03
2018-12-26T12:58:48.758Z,96437.81
2018-12-26T13:01:21.513Z,96440.14
2018-12-26T13:03:54.284Z,96437.62
2018-12-26T13:06:26.977Z,96436.45
2018-12-26T13:08:59.602Z,96432.56
2018-12-26T13:11:32.402Z,96436.44
2018-12-26T13:14:05.163Z,96430.66
2018-12-26T13:16:37.884Z,96430.05
2018-12-26T13:19:10.562Z,96429.35
2018-12-26T13:21:43.229Z,96432.27
2018-12-26T13:24:15.960Z,96428.44
2018-12-26T13:26:48.596Z,96428.22
2018-12-26T13:29:21.401Z,96438.87
2018-12-26T13:31:54.020Z,96428.15
2018-12-26T13:34:26.724Z,96427.58
2018-12-26T13:36:59.469Z,96432.95
2018-12-26T13:39:32.295Z,96436.72
2018-12-26T13:42:04.979Z,96432.95
2018-12-26T13:44:37.753Z,96429.21
2018-12-26T13:47:12.240Z,96432.97
2018-12-26T13:49:44.919Z,96435.03
2018-12-26T13:52:17.554Z,96436.52
2018-12-26T13:54:50.211Z,96428.78
2018-12-26T13:57:22.872Z,96430.42
2018-12-26T14:00:02.281Z,96429.09
2018-12-26T14:02:30.179Z,96424.52
2018-12-26T14:05:02.864Z,96426.89
2018-12-26T14:07:35.529Z,96422.67
2018-12-26T14:10:10.668Z,96423.25
2018-12-26T14:12:43.337Z,96421.05
2018-12-26T14:15:16.058Z,96418.58
2018-12-26T14:17:48.708Z,96419.52
2018-12-26T14:20:21.352Z,96423.88
2018-12-26T14:22:53.997Z,96424.70
2018-12-26T14:25:26.667Z,96426.69
2018-12-26T14:27:59.385Z,96425.72
2018-12-26T14:30:32.023Z,96422.59
2018-12-26T14:33:04.837Z,96426.47
2018-12-26T14:35:37.564Z,96419.39
2018-12-26T14:38:10.295Z,96425.98
2018-12-26T14:40:42.980Z,96421.02
2018-12-26T14:43:15.647Z,96414.73
2018-12-26T14:45:48.449Z,96425.83
2018-12-26T14:48:21.211Z,96423.75
2018-12-26T14:50:54.037Z,96419.59
2018-12-26T14:53:26.736Z,96415.05
2018-12-26T14:55:59.358Z,96409.22
2018-12-26T14:58:32.162Z,96417.80
2018-12-26T15:01:04.920Z,96413.16
2018-12-26T15:03:37.663Z,96410.91
2018-12-26T15:06:10.599Z,96417.77
2018-12-26T15:08:43.338Z,96420.75
2018-12-26T15:11:16.025Z,96418.11
2018-12-26T15:13:48.616Z,96414.37
2018-12-26T15:16:21.438Z,96421.86
2018-12-26T15:18:54.162Z,96416.17
2018-12-26T15:21:26.904Z,96420.15
2018-12-26T15:23:59.636Z,96417.41
2018-12-26T15:26:32.363Z,96411.69
2018-12-26T15:29:05.100Z,96414.33
2018-12-26T15:31:38.713Z,96423.69
2018-12-26T15:34:11.765Z,96427.15
2018-12-26T15:36:44.530Z,96423.40
2018-12-26T15:39:17.238Z,96426.67
2018-12-26T15:41:49.889Z,96421.02
2018-12-26T15:44:22.601Z,96421.81
2018-12-26T15:46:55.267Z,96420.45
2018-12-26T15:49:27.936Z,96420.00
2018-12-26T15:52:00.598Z,96418.89
2018-12-26T15:54:33.233Z,96425.34
2018-12-26T15:57:05.991Z,96417.95
2018-12-26T15:59:38.713Z,96414.60
2018-12-26T16:02:11.393Z,96427.48
2018-12-26T16:04:44.065Z,96413.80
2018-12-26T16:07:16.708Z,96422.91
2018-12-26T16:09:49.420Z,96427.29
2018-12-26T16:12:22.023Z,96421.45
2018-12-26T16:14:57.065Z,96421.92
2018-12-26T16:17:30.942Z,96424.09
2018-12-26T16:20:03.572Z,96423.01
2018-12-26T16:22:36.223Z,96423.65
2018-12-26T16:25:09.776Z,96427.20
2018-12-26T16:27:42.477Z,96425.76
2018-12-26T16:30:15.184Z,96418.82
2018-12-26T16:32:47.839Z,96418.81
2018-12-26T16:35:20.551Z,96415.91
2018-12-26T16:38:01.325Z,96413.26
2018-12-26T16:40:27.593Z,96416.16
2018-12-26T16:43:00.285Z,96411.05
2018-12-26T16:45:32.983Z,96421.47
2018-12-26T16:48:05.719Z,96420.92
2018-12-26T16:50:38.658Z,96428.03
2018-12-26T16:53:11.366Z,96428.48
2018-12-26T16:55:46.845Z,96430.92
2018-12-26T16:58:19.588Z,96423.74
2018-12-26T17:00:55.170Z,96418.16
2018-12-26T17:03:26.836Z,96422.88
2018-12-26T17:05:59.498Z,96426.59
2018-12-26T17:08:32.241Z,96436.89
2018-12-26T17:11:04.951Z,96442.63
2018-12-26T17:13:38.622Z,96439.42
2018-12-26T17:16:11.790Z,96439.66
2018-12-26T17:18:44.521Z,96444.18
2018-12-26T17:21:17.273Z,96439.11
2018-12-26T17:23:49.910Z,96434.28
2018-12-26T17:26:22.604Z,96445.17
2018-12-26T17:28:55.538Z,96446.23
2018-12-26T17:31:28.151Z,96439.44
2018-12-26T17:34:00.861Z,96441.09
2018-12-26T17:36:33.667Z,96442.00
2018-12-26T17:39:08.794Z,96441.73
2018-12-26T17:41:41.489Z,96437.80
2018-12-26T17:44:14.230Z,96442.72
2018-12-26T17:46:46.900Z,96436.08
2018-12-26T17:49:19.698Z,96432.16
2018-12-26T17:51:52.755Z,96437.95
2018-12-26T17:55:19.088Z,96433.83
2018-12-26T17:57:58.286Z,96437.52
2018-12-26T18:00:58.439Z,96437.06
2018-12-26T18:03:31.166Z,96437.69
2018-12-26T18:06:04.875Z,96433.30
2018-12-26T18:08:39.779Z,96442.88
2018-12-26T18:11:13.419Z,96439.36
2018-12-26T18:13:46.064Z,96436.45
2018-12-26T18:16:18.762Z,96442.23
2018-12-26T18:18:51.420Z,96446.05
2018-12-26T18:21:24.077Z,96448.13
2018-12-26T18:23:56.763Z,96449.58
2018-12-26T18:26:29.492Z,96445.80
2018-12-26T18:29:02.245Z,96456.45
2018-12-26T18:31:36.777Z,96452.53
2018-12-26T18:34:09.751Z,96450.21
2018-12-26T18:36:43.212Z,96446.47
2018-12-26T18:39:15.987Z,96445.38
2018-12-26T18:41:48.678Z,96446.96
2018-12-26T18:44:21.339Z,96443.56
2018-12-26T18:46:54.124Z,96453.16
2018-12-26T18:49:26.741Z,96440.31
2018-12-26T18:51:59.514Z,96436.66
2018-12-26T18:54:32.232Z,96443.52
2018-12-26T18:57:04.934Z,96440.44
2018-12-26T18:59:37.610Z,96439.48
2018-12-26T19:02:10.379Z,96443.88
2018-12-26T19:04:43.096Z,96437.23
2018-12-26T19:07:15.867Z,96438.73
2018-12-26T19:09:48.618Z,96437.02
2018-12-26T19:12:20.747Z,96431.12
2018-12-26T19:14:53.426Z,96436.84
2018-12-26T19:17:26.191Z,96431.39
2018-12-26T19:19:58.884Z,96431.92
2018-12-26T19:22:31.564Z,96437.32
2018-12-26T19:25:04.174Z,96433.11
2018-12-26T19:27:36.850Z,96431.27
2018-12-26T19:30:13.464Z,96431.84
2018-12-26T19:32:47.291Z,96427.56
2018-12-26T19:35:19.949Z,96432.63
2018-12-26T19:37:52.737Z,96425.67
2018-12-26T19:40:25.453Z,96426.59
2018-12-26T19:42:58.134Z,96426.41
2018-12-26T19:45:31.769Z,96436.57
2018-12-26T19:48:04.614Z,96426.12
2018-12-26T19:50:37.398Z,96423.73
2018-12-26T19:53:10.174Z,96420.79
2018-12-26T19:55:42.944Z,96405.80
2018-12-26T19:58:15.624Z,96413.19
2018-12-26T20:00:48.539Z,96411.61
2018-12-26T20:03:21.284Z,96409.19
2018-12-26T20:05:54.016Z,96402.64
2018-12-26T20:08:26.738Z,96397.90
2018-12-26T20:10:59.459Z,96403.44
2018-12-26T20:13:32.181Z,96396.27
2018-12-26T20:16:04.859Z,96393.15
2018-12-26T20:18:37.560Z,96388.34
2018-12-26T20:21:12.274Z,96382.51
2018-12-26T20:23:45.035Z,96388.13
2018-12-26T20:26:17.730Z,96383.91
2018-12-26T20:28:50.412Z,96383.33
2018-12-26T20:31:23.045Z,96387.87
2018-12-26T20:33:55.818Z,96384.09
2018-12-26T20:36:28.499Z,96376.62
2018-12-26T20:39:00.862Z,96380.76
2018-12-26T20:41:33.708Z,96375.97
2018-12-26T20:44:06.379Z,96378.21
2018-12-26T20:46:39.037Z,96373.20
2018-12-26T20:49:11.810Z,96373.16
2018-12-26T20:51:44.538Z,96374.47
2018-12-26T20:54:17.241Z,96366.77
2018-12-26T20:56:49.982Z,96357.28
2018-12-26T20:59:22.546Z,96360.44
2018-12-26T21:01:55.306Z,96352.31
2018-12-26T21:04:27.935Z,96348.80
2018-12-26T21:07:00.649Z,96348.93
2018-12-26T21:09:33.444Z,96348.10
2018-12-26T21:12:06.284Z,96351.39
2018-12-26T21:14:39.459Z,96347.05
2018-12-26T21:17:12.133Z,96349.24
2018-12-26T21:19:44.822Z,96348.41
2018-12-26T21:22:17.509Z,96349.45
2018-12-26T21:24:50.262Z,96351.95
2018-12-26T21:27:23.002Z,96357.92
2018-12-26T21:29:55.738Z,96359.25
2018-12-26T21:32:32.111Z,96356.62
2018-12-26T21:35:05.340Z,96355.13
2018-12-26T21:37:37.958Z,96352.00
2018-12-26T21:40:11.602Z,96356.95
2018-12-26T21:42:44.313Z,96348.52
2018-12-26T21:45:17.216Z,96350.66
2018-12-26T21:47:50.249Z,96352.31
2018-12-26T21:50:22.905Z,96346.53
2018-12-26T21:52:55.776Z,96349.52
2018-12-26T21:55:28.518Z,96339.41
2018-12-26T21:58:01.682Z,96343.42
2018-12-26T22:00:34.384Z,96343.81
2018-12-26T22:03:07.098Z,96344.84
2018-12-26T22:05:39.888Z,96341.19
2018-12-26T22:08:12.855Z,96340.08
2018-12-26T22:10:45.525Z,96339.91
2018-12-26T22:13:19.327Z,96342.32
2018-12-26T22:15:53.871Z,96336.13
2018-12-26T22:18:27.977Z,96342.77
2018-12-26T22:21:00.731Z,96343.15
2018-12-26T22:23:34.261Z,96341.22
2018-12-26T22:26:06.959Z,96336.00
2018-12-26T22:28:39.754Z,96328.67
2018-12-26T22:31:12.403Z,96325.13
2018-12-26T22:33:45.146Z,96322.16
2018-12-26T22:36:17.868Z,96321.74
2018-12-26T22:38:50.591Z,96314.23
2018-12-26T22:41:23.308Z,96313.03
2018-12-26T22:43:55.970Z,96313.06
2018-12-26T22:46:28.809Z,96308.94
2018-12-26T22:49:01.704Z,96316.62
2018-12-26T22:51:41.645Z,96313.73
2018-12-26T22:54:08.965Z,96312.48
2018-12-26T22:56:41.670Z,96314.59
2018-12-26T22:59:14.382Z,96315.03
2018-12-26T23:01:47.014Z,96310.69
2018-12-26T23:04:22.387Z,96301.34
2018-12-26T23:06:56.356Z,96313.63
2018-12-26T23:09:29.028Z,96304.58
2018-12-26T23:12:01.713Z,96300.70
2018-12-26T23:14:34.374Z,96308.78
2018-12-26T23:17:08.199Z,96299.79
2018-12-26T23:19:41.055Z,96291.71
2018-12-26T23:22:13.762Z,96294.31
2018-12-26T23:24:46.467Z,96291.12
2018-12-26T23:27:19.141Z,96285.47
2018-12-26T23:29:51.792Z,96279.61
2018-12-26T23:32:24.379Z,96277.91
2018-12-26T23:34:57.869Z,96277.28
2018-12-26T23:37:30.468Z,96266.03
2018-12-26T23:40:03.117Z,96266.03
2018-12-26T23:42:36.025Z,96266.44
2018-12-26T23:45:09.031Z,96266.25
2018-12-26T23:47:41.621Z,96266.12
2018-12-26T23:50:15.602Z,96268.86
2018-12-26T23:52:48.263Z,96270.47
2018-12-26T23:55:20.914Z,96265.02
2018-12-26T23:57:53.665Z,96261.69
